Grenola, KS (67346)

12:22 AM CDT on October 23, 2014 (GMT -0500)
Atlanta Weather | Change Station
CLOSE
Current Station
Personal Weather Station
Location: Atlanta, KS
Elevation: 1447 ft
Nearby Weather Stations

Elev 1447 ft 37.43 °N, 96.76 °W | Updated 9 minutes ago

Rain
Rain
62.2 °F
Feels Like 62.2 °F
N
5.8
Wind Variable Wind from WSW

Today
High -- | Low -- °F
--% Chance of Precip.
Yesterday
High -- | Low -- °F
Precip. -- in
7:41 AM 6:38 PM
Waning Crescent, 0% visible
Pressure 30.11 in
Visibility 9.0 miles
Clouds Few 3900 ft
Mostly Cloudy 4800 ft
Overcast 10000 ft
Dew Point 61 °F
Humidity 95%
Rainfall 0.00 in
Snow Depth Not available.
UV 0 out of 12
Pollen 3.60 out of 12
Air Quality Not available.
Flu Activity No Activity
METAR KWLD 230454Z AUTO 21008KT 9SM -RA FEW039 BKN048 OVC100 17/16 A3013 RMK AO2 RAE21B47 SLP195 P0001 T01670156

More Conditions Fewer Conditions

Pressure 30.11 in
Visibility 9.0 miles
Clouds Few 3900 ft
Mostly Cloudy 4800 ft
Overcast 10000 ft
Dew Point 61 °F
Humidity 95%
Rainfall 0.00 in
Snow Depth Not available.
UV 0 out of 12
Pollen 3.60 out of 12
Air Quality Not available.
Flu Activity No Activity
METAR KWLD 230454Z AUTO 21008KT 9SM -RA FEW039 BKN048 OVC100 17/16 A3013 RMK AO2 RAE21B47 SLP195 P0001 T01670156

More Conditions Fewer Conditions

10-Day Weather Forecast

Almanac

Astronomy

Oct. 23, 2014 Rise Set
Actual Time 7:41 AM CDT 6:38 PM CDT
Civil Twilight 7:14 AM CDT 7:04 PM CDT
Nautical Twilight 6:44 AM CDT 7:35 PM CDT
Astronomical Twilight 6:14 AM CDT 8:05 PM CDT
Moon 7:22 AM CDT 6:40 PM CDT
Length of Visible Light 11h 49m
Length of Day
10h 56m
Tomorrow will be 2m 13s shorter.
Waning Crescent, 0% of the Moon is Illuminated
Today
Waning Crescent
Oct 23
New
Oct 30
First Quarter
Nov 6
Full
Nov 14
Last Quarter

Today's Extremes

State Highs State Lows

Community

WunderPhotos

Upload Photos

1,764,170 photos uploaded!

Nearby

Snow Depth

Station Depth Elevation
No new snow has been reported.

Earthquake Activity

City Distance Mag. Time & Date
Luther, Oklahoma 127 miles 2.5 10:36 PM CDT
2014-10-22
Crescent, Oklahoma 107 miles 2.7 9:58 PM CDT
2014-10-22
Anthony, Kansas 82 miles 3.3 6:48 PM CDT
2014-10-22
Langston, Oklahoma 108 miles 2.9 10:03 AM CDT
2014-10-22
Minimum magnitude displayed is 2.5.

Coastal Water Temperatures

Place Temperature
No Stations Reporting

Nearby Weather Stations